LESO/EAS METAR and TAF weather

Enter ICAO airport designator
Station Type Date Time Source
LESO METAR 2019/06/26 16:30 UTC NOAA

LESO 261630Z 35007KT 320V030 CAVOK 30/23 Q1012


Station Type Date Time Source
LESO Decoded METAR 2019/06/26 16:30 UTC NOAA

San Sebastian / Fuenterrabia, Spain (LESO) 43-21N 001-48W 8M
Jun 26, 2019 - 12:30 PM EDT / 2019.06.26 1630 UTC
Wind: from the N (350 degrees) at 8 MPH (7 KT) (direction variable):0
Visibility: greater than 7 mile(s):0
Temperature: 86 F (30 C)
Heat index: 93.4 F (34.1 C):1
Dew Point: 73 F (23 C)
Relative Humidity: 66%
Pressure (altimeter): 29.88 in. Hg (1012 hPa)
ob: LESO 261630Z 35007KT 320V030 CAVOK 30/23 Q1012
cycle: 16

Station Type Date Time Source
LESO TAF 2019/06/26 12:27 UTC NOAA

TAF LESO 261100Z 2612/2712 03009KT CAVOK TX32/2615Z TN18/2705Z
TEMPO 2621/2623 16016KT
TEMPO 2621/2703 28016KT PROB40
TEMPO 2621/2624 28015G30KT PROB30
TEMPO 2621/2706 3000 BCFG BKN010

Example: see airport list